Time;durP1;ratioP1;P1;durP2;ratioP2;P2;SDS_P1;SDS_P2;PMS_P1;PMS_P2;Temp;Humidity;BMP_temperature;BMP_pressure;BME280_temperature;BME280_humidity;BME280_pressure;Samples;Min_cycle;Max_cycle;Signal;HPM_P1;HPM_P2
2022/09/05 00:00:51;;;;;;;6.17;3.57;;;14.50;99.90;;;;;;5138946;27;20327;-84
2022/09/05 00:03:43;;;;;;;4.23;3.63;;;14.60;99.90;;;;;;5139146;27;20155;-84
2022/09/05 00:06:11;;;;;;;4.53;3.80;;;14.70;99.90;;;;;;5139288;27;20219;-85
2022/09/05 00:08:49;;;;;;;4.33;3.63;;;14.70;99.90;;;;;;5137721;27;20184;-85
2022/09/05 00:11:34;;;;;;;4.63;3.90;;;14.70;99.90;;;;;;5137313;27;20195;-83
2022/09/05 00:14:21;;;;;;;5.53;4.27;;;14.80;99.90;;;;;;5139121;27;20196;-85
2022/09/05 00:16:55;;;;;;;3.80;3.50;;;14.50;99.90;;;;;;5137716;27;20266;-84
2022/09/05 00:19:40;;;;;;;4.43;3.70;;;14.60;99.90;;;;;;5136950;27;20171;-83
2022/09/05 00:22:08;;;;;;;6.20;3.60;;;14.60;99.90;;;;;;5138400;27;20774;-85
2022/09/05 00:24:52;;;;;;;6.07;3.43;;;14.60;99.90;;;;;;5138622;27;20566;-84
2022/09/05 00:27:23;;;;;;;6.33;3.90;;;14.50;99.90;;;;;;5138933;27;20875;-84
2022/09/05 00:30:01;;;;;;;5.03;3.77;;;14.50;99.90;;;;;;5137571;27;20605;-83
2022/09/05 00:32:59;;;;;;;4.23;3.23;;;14.80;99.90;;;;;;5137338;27;20170;-84
2022/09/05 00:35:51;;;;;;;6.00;3.60;;;14.50;99.90;;;;;;5137560;27;20168;-84
2022/09/05 00:38:20;;;;;;;4.27;3.50;;;14.10;99.90;;;;;;5136853;27;20189;-84
2022/09/05 00:40:51;;;;;;;6.17;3.90;;;14.50;99.90;;;;;;5138412;27;20255;-84
2022/09/05 00:43:39;;;;;;;4.43;3.57;;;14.50;99.90;;;;;;5137151;27;20163;-84
2022/09/05 00:46:16;;;;;;;4.97;3.70;;;14.50;99.90;;;;;;5137930;27;20183;-84
2022/09/05 00:48:45;;;;;;;6.33;3.57;;;14.20;99.90;;;;;;5136838;27;20159;-85
2022/09/05 00:51:37;;;;;;;3.90;3.50;;;14.40;99.90;;;;;;5137025;27;20237;-84
2022/09/05 00:54:23;;;;;;;4.93;3.90;;;14.40;99.90;;;;;;5138491;27;20231;-84
2022/09/05 00:56:55;;;;;;;4.83;3.97;;;14.50;99.90;;;;;;5136647;27;20170;-84
2022/09/05 00:59:38;;;;;;;5.30;4.07;;;14.50;99.90;;;;;;5137915;27;20182;-84
2022/09/05 01:02:41;;;;;;;4.60;3.70;;;14.40;99.90;;;;;;5136800;27;20248;-83
2022/09/05 01:05:33;;;;;;;4.90;3.63;;;14.60;99.90;;;;;;5136209;27;20185;-84
2022/09/05 01:08:26;;;;;;;4.20;3.80;;;14.30;99.90;;;;;;5137519;27;20238;-84
2022/09/05 01:11:16;;;;;;;5.10;4.00;;;14.40;99.90;;;;;;5136802;27;20274;-83
2022/09/05 01:13:51;;;;;;;3.60;3.30;;;14.40;99.90;;;;;;5137937;27;20178;-84
2022/09/05 01:16:45;;;;;;;4.87;3.40;;;14.40;99.90;;;;;;5136305;27;20226;-84
2022/09/05 01:19:21;;;;;;;5.60;3.90;;;14.30;99.90;;;;;;5108650;27;20206;-85
2022/09/05 01:22:24;;;;;;;4.40;3.67;;;14.10;99.90;;;;;;5137236;27;20222;-83
2022/09/05 01:25:18;;;;;;;4.97;3.90;;;14.30;99.90;;;;;;5138014;27;20166;-83
2022/09/05 01:28:12;;;;;;;4.13;3.73;;;14.20;99.90;;;;;;5138126;27;20165;-83
2022/09/05 01:30:54;;;;;;;4.37;3.77;;;14.10;99.90;;;;;;5137329;27;20199;-82
2022/09/05 01:33:48;;;;;;;4.20;3.80;;;13.90;99.90;;;;;;5137608;27;20175;-85
2022/09/05 01:36:23;;;;;;;5.37;3.73;;;14.10;99.90;;;;;;5138125;27;20171;-84
2022/09/05 01:39:14;;;;;;;4.27;3.67;;;14.10;99.90;;;;;;5139350;27;20151;-84
2022/09/05 01:41:48;;;;;;;9.40;4.37;;;14.00;99.90;;;;;;5140503;27;20199;-83
2022/09/05 01:44:42;;;;;;;5.50;4.20;;;14.00;99.90;;;;;;5139997;27;20178;-83
2022/09/05 01:47:17;;;;;;;4.70;3.60;;;13.90;99.90;;;;;;5141777;27;20254;-83
2022/09/05 01:49:52;;;;;;;4.60;3.90;;;13.90;99.90;;;;;;5141975;27;20178;-83
2022/09/05 01:52:21;;;;;;;5.37;4.03;;;13.90;99.90;;;;;;5136191;27;20226;-83
2022/09/05 01:55:08;;;;;;;6.17;4.43;;;13.90;99.90;;;;;;5135810;27;20182;-82
2022/09/05 01:58:04;;;;;;;5.47;3.43;;;13.90;99.90;;;;;;5135571;28;20224;-83
2022/09/05 02:00:42;;;;;;;7.23;3.60;;;13.90;99.90;;;;;;5135967;28;20194;-83
2022/09/05 02:03:22;;;;;;;4.23;3.83;;;13.90;99.90;;;;;;5135872;28;20262;-84
2022/09/05 02:06:02;;;;;;;4.07;3.63;;;13.90;99.90;;;;;;5137295;28;20163;-83
2022/09/05 02:08:51;;;;;;;5.20;3.90;;;13.90;99.90;;;;;;5139759;27;20555;-84
2022/09/05 02:11:16;;;;;;;4.50;3.93;;;13.80;99.90;;;;;;5139585;27;20198;-83
2022/09/05 02:13:58;;;;;;;5.70;4.33;;;13.90;99.90;;;;;;5139778;27;20599;-83
2022/09/05 02:16:41;;;;;;;6.30;4.27;;;13.80;99.90;;;;;;5140861;27;20151;-83
2022/09/05 02:19:09;;;;;;;4.20;3.83;;;13.80;99.90;;;;;;5141257;27;20155;-83
2022/09/05 02:21:47;;;;;;;4.10;3.70;;;13.80;99.90;;;;;;5140098;27;20203;-82
2022/09/05 02:24:21;;;;;;;4.30;3.90;;;13.80;99.90;;;;;;5141090;27;20216;-83
2022/09/05 02:26:53;;;;;;;7.20;4.17;;;13.80;99.90;;;;;;5140987;27;20155;-83
2022/09/05 02:29:34;;;;;;;6.40;4.23;;;13.70;99.90;;;;;;5140573;27;20216;-82
2022/09/05 02:32:11;;;;;;;4.30;3.87;;;13.70;99.90;;;;;;5140706;27;20199;-82
2022/09/05 02:34:40;;;;;;;4.27;3.87;;;13.70;99.90;;;;;;5140512;27;20162;-83
2022/09/05 02:37:17;;;;;;;5.17;3.77;;;13.70;99.90;;;;;;5140816;27;20183;-82
2022/09/05 02:39:51;;;;;;;5.27;4.10;;;13.70;99.90;;;;;;5139043;27;20270;-82
2022/09/05 02:42:20;;;;;;;4.70;3.97;;;13.60;99.90;;;;;;5139296;27;20675;-83
2022/09/05 02:45:11;;;;;;;3.87;3.40;;;13.60;99.90;;;;;;5138998;27;20646;-81
2022/09/05 02:47:55;;;;;;;6.17;4.00;;;13.60;99.90;;;;;;5139924;27;20162;-82
2022/09/05 02:50:44;;;;;;;5.67;3.47;;;13.60;99.90;;;;;;5140054;27;20574;-83
2022/09/05 02:53:13;;;;;;;5.27;4.27;;;13.60;99.90;;;;;;5138455;27;20544;-82
2022/09/05 02:55:51;;;;;;;3.77;3.47;;;13.60;99.90;;;;;;5140224;27;20167;-82
2022/09/05 02:58:32;;;;;;;6.90;3.70;;;13.60;99.90;;;;;;5140322;27;20159;-83
2022/09/05 03:01:15;;;;;;;5.20;3.90;;;13.60;99.90;;;;;;5138924;27;20221;-82
2022/09/05 03:04:12;;;;;;;8.10;3.60;;;13.60;99.90;;;;;;5140368;27;20180;-83
2022/09/05 03:06:49;;;;;;;4.67;3.17;;;13.60;99.90;;;;;;5105780;27;20567;-83
2022/09/05 03:09:37;;;;;;;5.30;3.87;;;13.60;99.90;;;;;;5140470;27;20198;-83
2022/09/05 03:12:21;;;;;;;4.83;3.63;;;13.60;99.90;;;;;;5140288;27;20194;-83
2022/09/05 03:15:08;;;;;;;5.53;3.73;;;13.60;99.90;;;;;;5139063;27;20183;-84
2022/09/05 03:17:37;;;;;;;4.03;3.63;;;13.50;99.90;;;;;;5139138;27;20212;-82
2022/09/05 03:20:45;;;;;;;4.60;4.20;;;13.50;99.90;;;;;;5139125;27;20171;-82
2022/09/05 03:23:46;;;;;;;4.20;3.80;;;13.50;99.90;;;;;;5138385;27;20178;-83
2022/09/05 03:26:49;;;;;;;6.30;4.00;;;13.50;99.90;;;;;;5114738;27;20182;-83
2022/09/05 03:29:50;;;;;;;4.43;3.40;;;13.50;99.90;;;;;;5139401;27;20491;-83
2022/09/05 03:32:22;;;;;;;5.67;3.63;;;13.50;99.90;;;;;;5076076;28;20221;-83
2022/09/05 03:35:02;;;;;;;3.73;3.37;;;13.50;99.90;;;;;;5129105;27;20280;-84
2022/09/05 03:37:40;;;;;;;4.63;3.60;;;13.40;99.90;;;;;;5139783;27;20518;-84
2022/09/05 03:40:18;;;;;;;4.20;3.40;;;13.40;99.90;;;;;;5139901;27;20585;-83
2022/09/05 03:43:03;;;;;;;4.83;3.60;;;13.40;99.90;;;;;;5139072;27;20205;-82
2022/09/05 03:45:54;;;;;;;5.03;3.93;;;13.40;99.90;;;;;;5138157;27;20187;-82
2022/09/05 03:48:20;;;;;;;7.33;3.40;;;13.40;99.90;;;;;;5139622;27;20154;-83
2022/09/05 03:51:08;;;;;;;5.80;3.60;;;13.40;99.90;;;;;;5139467;27;20194;-82
2022/09/05 03:53:52;;;;;;;8.13;3.77;;;13.30;99.90;;;;;;5100343;27;20179;-82
2022/09/05 03:56:48;;;;;;;3.80;3.33;;;13.30;99.90;;;;;;5137912;27;20166;-82
2022/09/05 03:59:51;;;;;;;3.93;3.30;;;13.30;99.90;;;;;;5139640;27;20151;-83
2022/09/05 04:02:22;;;;;;;4.03;3.63;;;13.30;99.90;;;;;;5139010;27;20225;-83
2022/09/05 04:04:59;;;;;;;6.03;3.10;;;13.30;99.90;;;;;;5139221;27;20156;-83
2022/09/05 04:07:46;;;;;;;3.83;3.43;;;13.30;99.90;;;;;;5137645;27;20162;-83
2022/09/05 04:10:35;;;;;;;4.87;3.00;;;13.30;99.90;;;;;;5139629;27;20202;-82
2022/09/05 04:13:34;;;;;;;5.50;3.50;;;13.30;99.90;;;;;;5139500;27;20167;-83
2022/09/05 04:16:33;;;;;;;4.17;3.40;;;13.30;99.90;;;;;;5132759;27;20426;-85
2022/09/05 05:14:56;;;;;;;5.87;5.20;;;13.40;99.90;;;;;;5139305;27;20582;-85
2022/09/05 05:17:39;;;;;;;5.33;4.80;;;13.50;99.90;;;;;;5120416;28;20716;-84
2022/09/05 05:20:24;;;;;;;5.40;4.73;;;13.50;99.90;;;;;;5139580;28;20740;-83
2022/09/05 05:23:15;;;;;;;6.40;4.97;;;13.60;99.90;;;;;;5138292;27;20159;-84
2022/09/05 05:25:46;;;;;;;5.13;4.63;;;13.60;99.90;;;;;;5134895;28;20160;-82
2022/09/05 05:28:35;;;;;;;5.27;3.97;;;13.70;99.90;;;;;;5132991;28;20182;-83
2022/09/05 05:31:14;;;;;;;4.47;4.03;;;13.80;99.90;;;;;;5122886;27;20198;-86
2022/09/05 05:44:37;;;;;;;4.70;4.10;;;14.00;99.90;;;;;;5115911;27;20359;-84
2022/09/05 05:47:17;;;;;;;4.27;3.87;;;14.10;99.90;;;;;;5114498;28;20190;-85
2022/09/05 05:50:06;;;;;;;4.97;3.73;;;14.10;99.90;;;;;;5115383;28;20201;-84
2022/09/05 05:52:53;;;;;;;3.47;3.17;;;14.10;99.90;;;;;;5093440;28;20168;-84
2022/09/05 05:55:36;;;;;;;4.60;3.87;;;14.10;99.90;;;;;;5093269;28;20200;-84
2022/09/05 05:58:27;;;;;;;4.70;3.40;;;14.10;99.90;;;;;;5094668;28;20632;-84
2022/09/05 06:01:20;;;;;;;4.70;3.63;;;14.10;99.90;;;;;;5092421;28;20256;-83
2022/09/05 06:04:34;;;;;;;3.90;3.50;;;14.20;99.90;;;;;;5092804;28;20207;-84
2022/09/05 06:07:46;;;;;;;3.60;3.23;;;14.20;99.90;;;;;;5093457;28;20190;-83
2022/09/05 06:15:38;;;;;;;5.50;3.47;;;14.30;99.90;;;;;;5138328;27;20273;-85
2022/09/05 06:18:10;;;;;;;4.53;3.50;;;14.40;99.90;;;;;;5117378;28;20170;-81
2022/09/05 06:21:01;;;;;;;10.90;3.60;;;14.40;99.90;;;;;;5120302;28;20191;-83
2022/09/05 06:23:50;;;;;;;7.47;3.47;;;14.40;99.90;;;;;;5134409;27;20164;-82
2022/09/05 06:26:28;;;;;;;6.10;3.30;;;14.50;99.90;;;;;;5133342;28;20175;-82
2022/09/05 06:29:19;;;;;;;3.10;2.70;;;14.60;99.90;;;;;;5134656;27;20624;-83
2022/09/05 06:32:06;;;;;;;4.13;2.80;;;14.70;99.90;;;;;;5133032;28;20199;-83
2022/09/05 06:34:37;;;;;;;3.00;2.60;;;14.80;99.90;;;;;;5135038;28;20621;-83
2022/09/05 06:37:06;;;;;;;7.43;2.77;;;15.00;99.90;;;;;;5135113;27;20163;-83
2022/09/05 06:40:04;;;;;;;4.73;2.70;;;15.10;99.90;;;;;;5134571;27;20174;-82
2022/09/05 06:42:38;;;;;;;2.77;2.57;;;15.20;99.90;;;;;;5110877;27;20187;-83
2022/09/05 06:45:13;;;;;;;5.97;2.43;;;15.40;99.90;;;;;;5133417;27;20291;-84
2022/09/05 06:47:43;;;;;;;5.27;2.77;;;15.40;99.90;;;;;;5132624;28;20220;-83
2022/09/05 06:50:28;;;;;;;5.83;2.10;;;15.50;99.90;;;;;;5132698;28;20224;-84
2022/09/05 06:52:57;;;;;;;3.57;2.80;;;15.50;99.90;;;;;;5133642;27;20156;-85
2022/09/05 06:55:55;;;;;;;5.90;2.87;;;15.60;99.90;;;;;;5132508;28;20176;-85
2022/09/05 06:58:33;;;;;;;2.97;2.63;;;15.60;99.90;;;;;;5133048;28;20699;-84
2022/09/05 07:01:01;;;;;;;4.07;2.57;;;15.70;99.90;;;;;;5133269;27;20182;-85
2022/09/05 07:03:47;;;;;;;4.70;2.43;;;15.70;99.90;;;;;;5132328;28;20176;-83
2022/09/05 07:06:30;;;;;;;5.70;2.60;;;15.80;99.90;;;;;;5121585;28;20266;-84
2022/09/05 07:09:13;;;;;;;2.50;2.30;;;15.90;99.90;;;;;;5132115;28;20171;-82
2022/09/05 07:12:05;;;;;;;3.63;2.57;;;16.10;99.90;;;;;;5132254;28;20195;-84
2022/09/05 07:14:41;;;;;;;4.60;2.33;;;16.20;99.90;;;;;;5133150;27;20208;-84
2022/09/05 07:17:15;;;;;;;3.87;2.27;;;16.40;99.90;;;;;;5133627;27;20156;-84
2022/09/05 07:19:57;;;;;;;3.03;2.33;;;16.60;99.90;;;;;;5133038;27;20225;-83
2022/09/05 07:22:34;;;;;;;2.57;2.20;;;16.70;99.90;;;;;;5131608;28;20234;-83
2022/09/05 07:25:09;;;;;;;3.20;2.40;;;16.80;99.90;;;;;;5126924;28;20283;-84
2022/09/05 07:27:41;;;;;;;3.80;2.20;;;16.90;99.90;;;;;;5119106;28;20167;-84
2022/09/05 07:30:08;;;;;;;3.00;2.70;;;16.90;99.90;;;;;;5117431;28;20225;-84
2022/09/05 07:32:47;;;;;;;3.17;2.57;;;17.00;99.90;;;;;;5117623;28;20650;-84
2022/09/05 07:35:41;;;;;;;3.27;2.30;;;17.00;99.90;;;;;;5119365;28;20186;-83
2022/09/05 07:38:13;;;;;;;2.20;2.00;;;17.20;99.90;;;;;;5116700;28;20196;-82
2022/09/05 07:40:50;;;;;;;2.90;2.30;;;17.30;99.90;;;;;;5117186;28;20556;-83
2022/09/05 07:43:24;;;;;;;3.67;2.20;;;17.40;99.90;;;;;;5116970;28;20620;-83
2022/09/05 07:46:10;;;;;;;4.57;2.27;;;17.60;99.90;;;;;;5118916;28;20241;-83
2022/09/05 07:48:39;;;;;;;3.30;2.30;;;17.80;99.90;;;;;;5118567;28;20570;-82
2022/09/05 07:51:11;;;;;;;2.80;2.30;;;18.00;99.90;;;;;;5117683;28;20706;-83
2022/09/05 07:53:41;;;;;;;4.37;1.90;;;18.30;99.90;;;;;;5118104;28;20190;-82
2022/09/05 07:56:09;;;;;;;4.07;2.40;;;18.60;99.90;;;;;;5119165;28;20166;-82
2022/09/05 07:58:42;;;;;;;2.20;2.00;;;19.10;99.90;;;;;;5118312;28;20178;-82
2022/09/05 08:01:13;;;;;;;4.57;2.33;;;19.50;99.90;;;;;;5117579;28;20310;-83
2022/09/05 08:03:42;;;;;;;3.67;2.00;;;19.70;99.90;;;;;;5118466;28;20192;-83
2022/09/05 08:06:17;;;;;;;2.37;2.17;;;19.90;99.90;;;;;;5118732;28;20170;-85
2022/09/05 08:09:03;;;;;;;2.70;2.23;;;20.10;99.90;;;;;;5117366;28;20201;-83
2022/09/05 08:11:33;;;;;;;4.07;2.20;;;20.50;99.90;;;;;;5118466;28;20693;-82
2022/09/05 08:14:17;;;;;;;2.60;2.30;;;20.80;99.90;;;;;;5118957;28;20206;-84
2022/09/05 08:16:43;;;;;;;3.10;2.40;;;21.00;99.90;;;;;;5118590;28;20167;-85
2022/09/05 08:19:38;;;;;;;3.00;2.20;;;21.20;99.90;;;;;;5119382;28;20247;-84
2022/09/05 08:22:06;;;;;;;2.67;2.00;;;21.40;99.90;;;;;;5118235;28;20198;-82
2022/09/05 08:24:36;;;;;;;3.00;1.90;;;21.80;99.90;;;;;;5119688;28;20228;-82
2022/09/05 08:27:18;;;;;;;4.53;1.90;;;22.10;99.90;;;;;;5118835;28;20171;-83
2022/09/05 08:30:00;;;;;;;2.40;2.03;;;22.40;99.90;;;;;;5119402;28;20176;-82
2022/09/05 08:32:44;;;;;;;2.53;2.10;;;23.00;99.90;;;;;;5120121;28;20164;-84
2022/09/05 08:35:27;;;;;;;3.60;2.10;;;23.50;99.90;;;;;;5121825;28;20550;-84
2022/09/05 08:37:56;;;;;;;2.73;1.80;;;24.00;99.90;;;;;;5120773;28;20175;-81
2022/09/05 08:40:40;;;;;;;2.40;2.03;;;24.60;99.90;;;;;;5123634;28;20514;-80
2022/09/05 08:43:11;;;;;;;2.63;1.60;;;25.10;99.90;;;;;;5116844;28;20174;-82
2022/09/05 08:45:42;;;;;;;1.80;1.70;;;25.40;99.90;;;;;;5116967;28;20632;-84
2022/09/05 08:48:36;;;;;;;2.73;1.90;;;25.70;99.90;;;;;;5116960;28;20210;-81
2022/09/05 08:51:23;;;;;;;1.70;1.60;;;25.90;99.90;;;;;;5117937;28;20529;-83
2022/09/05 08:54:15;;;;;;;2.13;1.80;;;26.00;99.90;;;;;;5117263;28;20173;-85
2022/09/05 08:56:49;;;;;;;1.97;1.77;;;26.00;99.90;;;;;;5117000;28;20186;-80
2022/09/05 08:59:35;;;;;;;2.63;2.03;;;25.90;99.90;;;;;;5117978;28;20603;-84
2022/09/05 09:02:19;;;;;;;4.67;1.97;;;25.60;99.90;;;;;;5117062;28;20196;-81
2022/09/05 09:05:06;;;;;;;1.80;1.60;;;25.70;99.90;;;;;;5115687;28;20200;-83
2022/09/05 09:08:21;;;;;;;3.03;1.87;;;25.90;99.90;;;;;;5115545;28;20176;-82
2022/09/05 09:11:04;;;;;;;1.60;1.50;;;25.70;99.90;;;;;;5117268;28;20186;-82
2022/09/05 09:13:54;;;;;;;3.13;1.50;;;25.70;99.90;;;;;;5117218;28;20203;-80
2022/09/05 09:16:46;;;;;;;2.33;1.63;;;25.70;99.90;;;;;;5115223;28;20168;-82
2022/09/05 09:19:42;;;;;;;3.53;2.10;;;25.60;99.90;;;;;;5091721;28;20211;-83
2022/09/05 09:22:24;;;;;;;5.23;1.70;;;25.30;99.90;;;;;;5115483;28;20278;-82
2022/09/05 09:25:02;;;;;;;3.07;2.10;;;25.10;99.90;;;;;;5117219;28;20183;-81
2022/09/05 09:27:46;;;;;;;4.53;1.70;;;25.20;99.90;;;;;;5117038;28;20167;-83
2022/09/05 09:30:13;;;;;;;2.73;1.80;;;25.40;99.90;;;;;;5116352;28;20188;-84
2022/09/05 09:32:44;;;;;;;2.40;2.10;;;25.50;99.90;;;;;;5115017;28;20180;-84
2022/09/05 09:35:26;;;;;;;3.67;2.17;;;25.60;99.90;;;;;;5115382;28;20183;-82
2022/09/05 09:38:15;;;;;;;3.13;2.00;;;25.80;99.90;;;;;;5116800;27;20159;-84
2022/09/05 09:41:09;;;;;;;3.43;1.83;;;26.10;99.90;;;;;;5116219;28;20198;-84
2022/09/05 09:43:49;;;;;;;2.63;2.03;;;26.30;99.90;;;;;;5115066;28;20206;-82
2022/09/05 09:46:36;;;;;;;4.03;1.73;;;26.40;99.90;;;;;;5116776;28;20175;-84
2022/09/05 09:49:13;;;;;;;2.20;1.60;;;26.50;99.90;;;;;;5116789;28;20176;-83
2022/09/05 09:51:57;;;;;;;5.13;1.90;;;26.60;99.90;;;;;;5116751;28;20657;-82
2022/09/05 09:54:23;;;;;;;2.00;1.80;;;26.50;99.90;;;;;;5115490;28;20178;-83
2022/09/05 09:56:54;;;;;;;2.40;1.83;;;26.60;99.90;;;;;;5115009;28;20259;-83
2022/09/05 09:59:38;;;;;;;6.97;2.37;;;27.00;99.90;;;;;;5114762;28;20292;-83
2022/09/05 10:02:14;;;;;;;3.73;1.73;;;27.30;99.90;;;;;;5114767;28;20201;-82
2022/09/05 10:05:07;;;;;;;4.13;1.90;;;27.60;99.90;;;;;;5115910;28;20186;-82
2022/09/05 10:07:58;;;;;;;4.07;1.83;;;27.90;99.90;;;;;;5116105;28;20186;-82
2022/09/05 10:10:46;;;;;;;5.17;2.10;;;28.00;99.90;;;;;;5116007;28;20291;-82
2022/09/05 10:13:49;;;;;;;1.93;1.73;;;28.10;99.90;;;;;;5114377;28;20203;-83
2022/09/05 10:16:26;;;;;;;3.63;1.50;;;28.00;99.90;;;;;;5115788;28;20549;-83
2022/09/05 10:19:00;;;;;;;2.57;1.60;;;28.00;99.90;;;;;;5116123;28;20254;-82
2022/09/05 10:21:50;;;;;;;1.73;1.60;;;27.80;99.90;;;;;;5114473;28;20205;-82
2022/09/05 10:24:16;;;;;;;2.03;1.60;;;28.00;99.90;;;;;;5116016;28;20192;-84
2022/09/05 10:27:19;;;;;;;2.00;1.70;;;28.00;99.90;;;;;;5114187;28;20184;-81
2022/09/05 10:30:18;;;;;;;1.90;1.47;;;28.20;99.90;;;;;;5114903;28;20693;-83
2022/09/05 10:33:11;;;;;;;1.80;1.60;;;28.20;99.90;;;;;;5115833;28;20153;-82
2022/09/05 10:35:42;;;;;;;1.80;1.47;;;28.50;99.90;;;;;;5114750;28;20688;-82
2022/09/05 10:38:41;;;;;;;1.87;1.77;;;28.80;99.90;;;;;;5116003;28;20661;-81
2022/09/05 10:41:12;;;;;;;4.13;1.60;;;29.00;99.90;;;;;;5114413;28;20673;-83
2022/09/05 10:44:00;;;;;;;2.87;2.07;;;29.30;99.90;;;;;;5114637;28;20209;-82
2022/09/05 10:46:54;;;;;;;2.10;1.63;;;29.00;99.90;;;;;;5115233;28;20591;-85
2022/09/05 10:49:32;;;;;;;2.33;1.77;;;29.10;99.90;;;;;;5114922;28;20175;-84
2022/09/05 10:52:11;;;;;;;1.77;1.63;;;29.20;99.90;;;;;;5116936;28;20286;-84
2022/09/05 10:55:01;;;;;;;2.80;1.93;;;29.20;99.90;;;;;;5117333;28;20166;-85
2022/09/05 10:57:43;;;;;;;3.90;1.70;;;29.30;99.90;;;;;;5117590;28;20228;-84
2022/09/05 11:00:22;;;;;;;2.33;1.77;;;29.60;99.90;;;;;;5116692;28;20293;-84
2022/09/05 11:02:55;;;;;;;3.73;2.00;;;29.50;99.90;;;;;;5121978;28;20172;-85
2022/09/05 11:05:25;;;;;;;2.17;1.70;;;29.70;99.90;;;;;;5122561;28;20232;-86
2022/09/05 11:08:14;;;;;;;2.00;1.80;;;29.70;99.90;;;;;;5123821;28;20173;-85
2022/09/05 11:10:48;;;;;;;1.63;1.53;;;29.90;99.90;;;;;;5123867;28;20680;-85
2022/09/05 11:13:23;;;;;;;1.83;1.70;;;30.10;99.90;;;;;;5123274;28;20191;-84
2022/09/05 11:15:48;;;;;;;1.97;1.80;;;30.30;99.90;;;;;;5124154;27;20515;-83
2022/09/05 11:18:32;;;;;;;1.70;1.60;;;30.30;99.50;;;;;;5122473;28;20182;-84
2022/09/05 11:21:07;;;;;;;1.30;1.20;;;30.30;99.80;;;;;;5123710;28;20736;-84
2022/09/05 11:23:50;;;;;;;2.57;1.60;;;30.20;99.90;;;;;;5123461;28;20179;-84
2022/09/05 11:26:24;;;;;;;2.43;1.83;;;30.10;99.00;;;;;;5121834;28;20644;-85
2022/09/05 11:28:56;;;;;;;3.83;1.97;;;30.30;99.90;;;;;;5122097;28;20163;-84
2022/09/05 11:31:29;;;;;;;2.63;1.87;;;30.10;97.80;;;;;;5123147;28;20199;-85
2022/09/05 11:34:24;;;;;;;3.03;1.80;;;30.00;96.60;;;;;;5121624;28;20165;-86
2022/09/05 11:36:54;;;;;;;3.20;1.97;;;30.60;98.60;;;;;;5123513;28;20163;-85
2022/09/05 11:39:38;;;;;;;2.20;2.00;;;30.60;98.50;;;;;;5123436;28;20230;-84
2022/09/05 11:42:31;;;;;;;2.63;1.70;;;30.60;98.50;;;;;;5124101;28;20200;-84
2022/09/05 11:45:25;;;;;;;2.00;1.80;;;30.70;96.20;;;;;;5124991;28;20248;-84
2022/09/05 11:47:57;;;;;;;3.27;1.60;;;30.60;99.90;;;;;;5110268;28;20192;-85
2022/09/05 11:50:59;;;;;;;3.60;2.40;;;30.00;96.50;;;;;;5123287;28;20285;-84
2022/09/05 11:53:42;;;;;;;1.60;1.50;;;29.70;99.10;;;;;;5119510;28;20179;-85
2022/09/05 11:56:23;;;;;;;3.60;1.80;;;30.10;99.90;;;;;;5120587;28;20171;-85
2022/09/05 11:59:06;;;;;;;1.73;1.63;;;30.60;98.20;;;;;;5119865;28;20175;-85
2022/09/05 12:01:58;;;;;;;3.87;1.77;;;31.00;99.50;;;;;;5119760;28;20204;-84
2022/09/05 12:04:49;;;;;;;1.87;1.50;;;31.40;98.30;;;;;;5096465;28;20219;-85
2022/09/05 12:07:39;;;;;;;2.87;1.77;;;31.70;98.70;;;;;;5119547;28;20195;-82
2022/09/05 12:10:26;;;;;;;1.60;1.43;;;31.80;97.40;;;;;;5120940;28;20161;-84
2022/09/05 12:13:19;;;;;;;2.73;1.57;;;31.80;99.10;;;;;;5120483;28;20160;-84
2022/09/05 12:15:45;;;;;;;2.33;1.60;;;31.80;95.20;;;;;;5119294;28;20185;-85
2022/09/05 12:18:32;;;;;;;1.70;1.43;;;32.10;94.70;;;;;;5119350;28;20655;-84
2022/09/05 12:21:37;;;;;;;2.57;1.70;;;31.50;92.90;;;;;;5119201;28;20248;-85
2022/09/05 12:24:13;;;;;;;2.13;1.50;;;;;;;;;;5119406;28;20204;-86
2022/09/05 12:27:04;;;;;;;2.60;1.37;;;31.40;97.40;;;;;;5120650;28;20175;-85
2022/09/05 12:29:36;;;;;;;4.40;1.40;;;31.40;86.70;;;;;;5119123;28;20175;-85
2022/09/05 12:32:19;;;;;;;1.50;1.40;;;31.30;92.90;;;;;;5119214;28;20228;-85
2022/09/05 12:34:52;;;;;;;1.53;1.20;;;31.50;89.80;;;;;;5118831;28;20557;-85
2022/09/05 12:37:40;;;;;;;1.70;1.50;;;31.60;86.40;;;;;;5118936;28;20183;-84
2022/09/05 12:40:10;;;;;;;2.80;1.60;;;31.80;86.60;;;;;;5119439;28;20168;-87
2022/09/05 12:42:52;;;;;;;3.00;1.50;;;31.80;92.80;;;;;;5119727;28;20178;-84
2022/09/05 12:46:00;;;;;;;1.97;1.50;;;32.00;92.30;;;;;;5118157;28;20188;-84
2022/09/05 12:48:45;;;;;;;1.90;1.47;;;32.30;91.20;;;;;;5089481;28;20186;-84
2022/09/05 12:51:18;;;;;;;6.67;1.70;;;31.10;92.60;;;;;;5117745;28;20195;-84
2022/09/05 12:53:45;;;;;;;3.37;1.87;;;30.00;92.40;;;;;;5119313;28;20238;-84
2022/09/05 12:56:15;;;;;;;2.07;1.63;;;29.80;89.50;;;;;;5119771;28;20236;-83
2022/09/05 12:58:47;;;;;;;5.97;1.53;;;29.80;96.90;;;;;;5118379;28;20174;-84
2022/09/05 13:01:15;;;;;;;3.27;1.70;;;29.50;93.50;;;;;;5116812;28;20198;-82
2022/09/05 13:04:20;;;;;;;4.00;1.70;;;29.50;94.00;;;;;;5117657;28;20241;-84
2022/09/05 13:07:01;;;;;;;5.30;1.87;;;29.40;91.80;;;;;;5117817;28;20161;-84
2022/09/05 13:09:34;;;;;;;3.77;1.50;;;29.00;95.50;;;;;;5118530;28;20160;-83
2022/09/05 13:12:18;;;;;;;1.53;1.37;;;29.40;97.80;;;;;;5118263;27;20277;-84
2022/09/05 13:14:49;;;;;;;2.30;1.50;;;30.10;92.40;;;;;;5116769;28;20246;-83
2022/09/05 13:17:15;;;;;;;2.77;1.57;;;30.60;94.40;;;;;;5117757;28;20180;-85
2022/09/05 13:19:49;;;;;;;1.93;1.60;;;31.10;92.60;;;;;;5116822;28;20206;-83
2022/09/05 13:22:19;;;;;;;1.90;1.50;;;31.50;87.10;;;;;;5116442;28;20242;-84
2022/09/05 13:24:51;;;;;;;3.80;1.70;;;31.40;93.20;;;;;;5118170;28;20203;-84
2022/09/05 13:27:30;;;;;;;2.40;1.57;;;31.50;88.80;;;;;;5116732;28;20618;-84
2022/09/05 13:30:05;;;;;;;2.30;1.40;;;31.10;87.40;;;;;;5116732;28;20198;-84
2022/09/05 13:32:44;;;;;;;2.10;1.97;;;31.00;90.70;;;;;;5116600;28;20165;-83
2022/09/05 13:35:14;;;;;;;1.73;1.57;;;30.30;90.30;;;;;;5117855;28;20169;-84
2022/09/05 13:38:07;;;;;;;2.97;1.80;;;30.50;94.20;;;;;;5116412;28;20245;-84
2022/09/05 13:40:43;;;;;;;7.40;2.10;;;30.30;92.10;;;;;;5117821;28;20191;-83
2022/09/05 13:43:12;;;;;;;1.67;1.57;;;30.10;94.20;;;;;;5116164;28;20236;-84
2022/09/05 13:46:09;;;;;;;2.10;1.57;;;29.80;91.90;;;;;;5116726;28;20168;-83
2022/09/05 13:48:54;;;;;;;2.87;1.50;;;29.00;91.70;;;;;;5115508;28;20607;-84
2022/09/05 13:51:35;;;;;;;4.00;1.70;;;28.20;92.20;;;;;;5117649;28;20218;-83
2022/09/05 13:54:23;;;;;;;3.87;1.70;;;27.70;92.60;;;;;;5116217;28;20181;-84
2022/09/05 13:57:15;;;;;;;2.83;1.50;;;27.40;94.90;;;;;;5115427;28;20245;-85
2022/09/05 13:59:59;;;;;;;4.07;1.57;;;27.10;95.40;;;;;;5114902;28;20217;-83
2022/09/05 14:03:02;;;;;;;1.70;1.50;;;26.90;96.40;;;;;;5097496;28;20176;-82
2022/09/05 14:05:52;;;;;;;1.63;1.53;;;26.50;95.00;;;;;;5117525;28;20173;-83
2022/09/05 14:08:49;;;;;;;1.80;1.67;;;26.20;94.50;;;;;;5115315;28;20176;-84
2022/09/05 14:11:43;;;;;;;5.27;1.80;;;26.10;98.10;;;;;;5115916;28;20631;-84
2022/09/05 14:14:38;;;;;;;3.37;1.90;;;26.20;96.30;;;;;;5116042;28;20191;-84
2022/09/05 14:17:25;;;;;;;4.23;1.80;;;26.60;99.00;;;;;;5116397;28;20663;-84
2022/09/05 14:22:45;;;;;;;2.60;1.57;;;26.90;99.70;;;;;;5118022;28;20208;-84
2022/09/05 14:25:36;;;;;;;3.23;1.93;;;26.80;97.70;;;;;;5117661;28;20186;-85
2022/09/05 14:28:04;;;;;;;5.10;1.80;;;27.00;98.20;;;;;;5115744;28;20189;-83
2022/09/05 14:30:49;;;;;;;2.80;1.40;;;28.20;95.30;;;;;;5117990;28;20202;-82
2022/09/05 14:33:27;;;;;;;1.77;1.60;;;29.90;97.70;;;;;;5117684;28;20156;-83
2022/09/05 14:36:11;;;;;;;2.40;1.40;;;31.40;92.80;;;;;;5119161;28;20189;-82
2022/09/05 14:38:53;;;;;;;2.03;1.70;;;32.30;92.00;;;;;;5122430;28;20161;-84
2022/09/05 14:42:14;;;;;;;4.90;1.80;;;32.10;93.20;;;;;;5121769;28;20256;-82
2022/09/05 14:45:17;;;;;;;2.77;1.80;;;31.20;90.50;;;;;;5062813;28;20207;-84
2022/09/05 14:47:50;;;;;;;1.97;1.77;;;31.20;91.80;;;;;;5038859;28;20188;-83
2022/09/05 14:51:17;;;;;;;3.50;2.07;;;31.60;90.70;;;;;;5107685;28;20256;-83
2022/09/05 14:54:00;;;;;;;2.10;1.73;;;31.60;89.00;;;;;;5081131;28;20268;-85
2022/09/05 14:56:48;;;;;;;3.80;1.70;;;31.70;88.90;;;;;;5082176;28;20185;-83
2022/09/05 14:59:21;;;;;;;2.63;2.10;;;31.60;89.70;;;;;;5120783;28;20184;-82
2022/09/05 15:02:04;;;;;;;3.00;1.47;;;31.70;86.00;;;;;;5123002;28;20191;-83
2022/09/05 15:04:54;;;;;;;3.63;1.90;;;31.90;90.60;;;;;;5120650;28;20186;-82
2022/09/05 15:07:30;;;;;;;2.13;1.87;;;31.80;84.90;;;;;;5118977;28;20167;-85
2022/09/05 15:10:20;;;;;;;2.93;1.67;;;31.50;86.90;;;;;;5118822;28;20177;-83
2022/09/05 15:13:11;;;;;;;2.63;1.77;;;31.40;90.10;;;;;;5120169;28;20163;-84
2022/09/05 15:15:44;;;;;;;3.20;1.67;;;31.20;88.00;;;;;;5119011;28;20175;-81
2022/09/05 15:18:16;;;;;;;3.63;1.80;;;31.10;88.70;;;;;;5118903;28;20231;-83
2022/09/05 15:20:44;;;;;;;5.00;1.80;;;31.10;83.00;;;;;;5117906;28;20293;-83